deformed-offering

Current conditions - KSJC (San Jose International)


Coded METAR: 2017/02/23 15:53 KSJC 231553Z 00000KT 10SM FEW035 07/02 A3025 RMK AO2 SLP242 T00670022

Weather Report

Report issued: Thu 23rd Feb at 07:53 PST

Wind: calm 0 knots (0 mph, 0 kph, Force 0)
Visibility: 10 statute miles
Cloud: a few clouds at 3500 feet
Temperature: 45F / 7C
Dewpoint: 36F / 2C
Humidity: 70%
Pressure: 30.25 inches of mercury

Current conditions - KNUQ (Moffett NAS)


Coded METAR: 2017/02/23 15:56 KNUQ 231556Z AUTO 25005KT 10SM CLR 07/02 A3026 RMK AO2 SLP248 T00670017

Weather Report

Report issued: Thu 23rd Feb at 07:56 PST

Wind: light breeze from West-Southwest (250 degrees) at 5 knots (6 mph, 9 kph, Force 2)
Visibility: 10 statute miles
Cloud: Sky clear
Temperature: 45F / 7C
Dewpoint: 36F / 2C
Humidity: 70%
Pressure: 30.26 inches of mercury

Current conditions - KRHV (Reid-Hillview Airport - San Jose)


Coded METAR: 2017/02/23 15:55 KRHV 231555Z 00000KT 10SM FEW030 05/02 A3027

Weather Report

Report issued: Thu 23rd Feb at 07:55 PST

Wind: calm 0 knots (0 mph, 0 kph, Force 0)
Visibility: 10 statute miles
Cloud: a few clouds at 3000 feet
Temperature: 41F / 5C
Dewpoint: 36F / 2C
Humidity: 81%
Pressure: 30.27 inches of mercury
Pressure: 30.26 inches of mercury

Current conditions - KPAO (Palo Alto Airport)


Coded METAR: 2017/02/23 15:47 KPAO 231547Z 31004KT 10SM FEW025 08/01 A3024

Weather Report

Report issued: Thu 23rd Feb at 07:47 PST

Wind: light breeze from the Northwest (310 degrees) at 4 knots (5 mph, 7 kph, Force 2)
Visibility: 10 statute miles
Cloud: a few clouds at 2500 feet
Temperature: 46F / 8C
Dewpoint: 34F / 1C
Humidity: 61%
Pressure: 30.24 inches of mercury
Pressure: 30.26 inches of mercury

 

deformed-offering